sensor_id;sensor_type;location;lat;lon;timestamp;pressure;altitude;pressure_sealevel;temperature
14851;BMP180;7517;48.400;11.770;2022-10-22T00:02:25;96165.00;;;18.70
14851;BMP180;7517;48.400;11.770;2022-10-22T00:04:54;96161.00;;;18.70
14851;BMP180;7517;48.400;11.770;2022-10-22T00:07:21;96161.00;;;18.70
14851;BMP180;7517;48.400;11.770;2022-10-22T00:09:49;96166.00;;;18.70
14851;BMP180;7517;48.400;11.770;2022-10-22T00:12:17;96163.00;;;18.70
14851;BMP180;7517;48.400;11.770;2022-10-22T00:14:45;96175.00;;;18.70
14851;BMP180;7517;48.400;11.770;2022-10-22T00:17:12;96165.00;;;18.70
14851;BMP180;7517;48.400;11.770;2022-10-22T00:19:39;96171.00;;;18.70
14851;BMP180;7517;48.400;11.770;2022-10-22T00:22:08;96172.00;;;18.70
14851;BMP180;7517;48.400;11.770;2022-10-22T00:24:37;96164.00;;;18.80
14851;BMP180;7517;48.400;11.770;2022-10-22T00:27:06;96168.00;;;18.80
14851;BMP180;7517;48.400;11.770;2022-10-22T00:29:34;96174.00;;;18.80
14851;BMP180;7517;48.400;11.770;2022-10-22T00:32:02;96173.00;;;18.80
14851;BMP180;7517;48.400;11.770;2022-10-22T00:34:30;96179.00;;;18.80
14851;BMP180;7517;48.400;11.770;2022-10-22T00:36:57;96170.00;;;18.80
14851;BMP180;7517;48.400;11.770;2022-10-22T00:39:27;96170.00;;;18.80
14851;BMP180;7517;48.400;11.770;2022-10-22T00:41:56;96169.00;;;18.80
14851;BMP180;7517;48.400;11.770;2022-10-22T00:45:06;96184.00;;;18.80
14851;BMP180;7517;48.400;11.770;2022-10-22T00:47:38;96186.00;;;18.80
14851;BMP180;7517;48.400;11.770;2022-10-22T00:50:10;96193.00;;;18.90
14851;BMP180;7517;48.400;11.770;2022-10-22T00:52:39;96211.00;;;18.90
14851;BMP180;7517;48.400;11.770;2022-10-22T00:55:08;96209.00;;;18.90
14851;BMP180;7517;48.400;11.770;2022-10-22T00:57:36;96212.00;;;18.90
14851;BMP180;7517;48.400;11.770;2022-10-22T01:00:05;96209.00;;;18.90
14851;BMP180;7517;48.400;11.770;2022-10-22T01:02:33;96228.00;;;18.90
14851;BMP180;7517;48.400;11.770;2022-10-22T01:05:00;96237.00;;;18.90
14851;BMP180;7517;48.400;11.770;2022-10-22T01:07:28;96243.00;;;18.90
14851;BMP180;7517;48.400;11.770;2022-10-22T01:10:07;96254.00;;;18.90
14851;BMP180;7517;48.400;11.770;2022-10-22T01:12:46;96255.00;;;18.90
14851;BMP180;7517;48.400;11.770;2022-10-22T01:15:25;96244.00;;;18.90
14851;BMP180;7517;48.400;11.770;2022-10-22T01:18:02;96238.00;;;18.90
14851;BMP180;7517;48.400;11.770;2022-10-22T01:20:52;96232.00;;;18.80
14851;BMP180;7517;48.400;11.770;2022-10-22T01:23:59;96237.00;;;18.80
14851;BMP180;7517;48.400;11.770;2022-10-22T01:26:47;96230.00;;;18.80
14851;BMP180;7517;48.400;11.770;2022-10-22T01:29:23;96213.00;;;18.80
14851;BMP180;7517;48.400;11.770;2022-10-22T01:31:58;96210.00;;;18.80
14851;BMP180;7517;48.400;11.770;2022-10-22T01:34:28;96212.00;;;18.80
14851;BMP180;7517;48.400;11.770;2022-10-22T01:36:58;96198.00;;;18.80
14851;BMP180;7517;48.400;11.770;2022-10-22T01:39:28;96193.00;;;18.80
14851;BMP180;7517;48.400;11.770;2022-10-22T01:41:57;96197.00;;;18.80
14851;BMP180;7517;48.400;11.770;2022-10-22T01:44:28;96181.00;;;18.80
14851;BMP180;7517;48.400;11.770;2022-10-22T01:47:13;96195.00;;;18.80
14851;BMP180;7517;48.400;11.770;2022-10-22T01:50:06;96206.00;;;18.80
14851;BMP180;7517;48.400;11.770;2022-10-22T01:52:59;96219.00;;;18.80
14851;BMP180;7517;48.400;11.770;2022-10-22T01:55:38;96217.00;;;18.80
14851;BMP180;7517;48.400;11.770;2022-10-22T01:58:21;96212.00;;;18.80
14851;BMP180;7517;48.400;11.770;2022-10-22T02:01:00;96228.00;;;18.80
14851;BMP180;7517;48.400;11.770;2022-10-22T02:03:39;96232.00;;;18.80
14851;BMP180;7517;48.400;11.770;2022-10-22T02:06:13;96228.00;;;18.80
14851;BMP180;7517;48.400;11.770;2022-10-22T02:08:44;96228.00;;;18.80
14851;BMP180;7517;48.400;11.770;2022-10-22T02:11:14;96216.00;;;18.80
14851;BMP180;7517;48.400;11.770;2022-10-22T02:13:46;96219.00;;;18.80
14851;BMP180;7517;48.400;11.770;2022-10-22T02:16:21;96215.00;;;18.80
14851;BMP180;7517;48.400;11.770;2022-10-22T02:18:53;96219.00;;;18.80
14851;BMP180;7517;48.400;11.770;2022-10-22T02:21:22;96219.00;;;18.80
14851;BMP180;7517;48.400;11.770;2022-10-22T02:23:49;96236.00;;;18.80
14851;BMP180;7517;48.400;11.770;2022-10-22T02:26:24;96244.00;;;18.80
14851;BMP180;7517;48.400;11.770;2022-10-22T02:29:02;96245.00;;;18.90
14851;BMP180;7517;48.400;11.770;2022-10-22T02:31:38;96249.00;;;18.90
14851;BMP180;7517;48.400;11.770;2022-10-22T02:34:10;96253.00;;;18.90
14851;BMP180;7517;48.400;11.770;2022-10-22T02:36:41;96266.00;;;18.90
14851;BMP180;7517;48.400;11.770;2022-10-22T02:39:10;96269.00;;;18.90
14851;BMP180;7517;48.400;11.770;2022-10-22T02:41:38;96266.00;;;18.80
14851;BMP180;7517;48.400;11.770;2022-10-22T02:44:08;96266.00;;;18.80
14851;BMP180;7517;48.400;11.770;2022-10-22T02:46:37;96273.00;;;18.80
14851;BMP180;7517;48.400;11.770;2022-10-22T02:49:05;96266.00;;;18.80
14851;BMP180;7517;48.400;11.770;2022-10-22T02:51:32;96270.00;;;18.80
14851;BMP180;7517;48.400;11.770;2022-10-22T02:53:59;96267.00;;;18.80
14851;BMP180;7517;48.400;11.770;2022-10-22T02:56:26;96273.00;;;18.80
14851;BMP180;7517;48.400;11.770;2022-10-22T02:58:53;96271.00;;;18.80
14851;BMP180;7517;48.400;11.770;2022-10-22T03:01:20;96273.00;;;18.80
14851;BMP180;7517;48.400;11.770;2022-10-22T03:03:49;96282.00;;;18.80
14851;BMP180;7517;48.400;11.770;2022-10-22T03:06:17;96277.00;;;18.80
14851;BMP180;7517;48.400;11.770;2022-10-22T03:08:44;96277.00;;;18.80
14851;BMP180;7517;48.400;11.770;2022-10-22T03:11:11;96277.00;;;18.80
14851;BMP180;7517;48.400;11.770;2022-10-22T03:13:38;96272.00;;;18.80
14851;BMP180;7517;48.400;11.770;2022-10-22T03:16:06;96271.00;;;18.80
14851;BMP180;7517;48.400;11.770;2022-10-22T03:18:33;96274.00;;;18.80
14851;BMP180;7517;48.400;11.770;2022-10-22T03:21:10;96270.00;;;18.80
14851;BMP180;7517;48.400;11.770;2022-10-22T03:23:41;96261.00;;;18.80
14851;BMP180;7517;48.400;11.770;2022-10-22T03:26:12;96259.00;;;18.80
14851;BMP180;7517;48.400;11.770;2022-10-22T03:28:41;96270.00;;;18.80
14851;BMP180;7517;48.400;11.770;2022-10-22T03:31:08;96266.00;;;18.80
14851;BMP180;7517;48.400;11.770;2022-10-22T03:33:35;96273.00;;;18.80
14851;BMP180;7517;48.400;11.770;2022-10-22T03:36:06;96267.00;;;18.80
14851;BMP180;7517;48.400;11.770;2022-10-22T03:38:34;96269.00;;;18.80
14851;BMP180;7517;48.400;11.770;2022-10-22T03:41:02;96259.00;;;18.80
14851;BMP180;7517;48.400;11.770;2022-10-22T03:43:29;96262.00;;;18.80
14851;BMP180;7517;48.400;11.770;2022-10-22T03:45:57;96260.00;;;18.80
14851;BMP180;7517;48.400;11.770;2022-10-22T03:48:24;96273.00;;;18.80
14851;BMP180;7517;48.400;11.770;2022-10-22T03:50:51;96275.00;;;18.80
14851;BMP180;7517;48.400;11.770;2022-10-22T03:53:20;96273.00;;;18.70
14851;BMP180;7517;48.400;11.770;2022-10-22T03:55:47;96270.00;;;18.70
14851;BMP180;7517;48.400;11.770;2022-10-22T03:58:14;96279.00;;;18.70
14851;BMP180;7517;48.400;11.770;2022-10-22T04:00:41;96296.00;;;18.70
14851;BMP180;7517;48.400;11.770;2022-10-22T04:03:08;96303.00;;;18.70
14851;BMP180;7517;48.400;11.770;2022-10-22T04:05:36;96307.00;;;18.70
14851;BMP180;7517;48.400;11.770;2022-10-22T04:08:03;96317.00;;;18.70
14851;BMP180;7517;48.400;11.770;2022-10-22T04:10:32;96308.00;;;18.70
14851;BMP180;7517;48.400;11.770;2022-10-22T04:12:59;96303.00;;;18.70
14851;BMP180;7517;48.400;11.770;2022-10-22T04:15:26;96305.00;;;18.70
14851;BMP180;7517;48.400;11.770;2022-10-22T04:17:54;96310.00;;;18.70
14851;BMP180;7517;48.400;11.770;2022-10-22T04:20:21;96309.00;;;18.60
14851;BMP180;7517;48.400;11.770;2022-10-22T04:22:48;96315.00;;;18.60
14851;BMP180;7517;48.400;11.770;2022-10-22T04:25:15;96315.00;;;18.60
14851;BMP180;7517;48.400;11.770;2022-10-22T04:27:44;96307.00;;;18.60
14851;BMP180;7517;48.400;11.770;2022-10-22T04:30:12;96315.00;;;18.60
14851;BMP180;7517;48.400;11.770;2022-10-22T04:32:39;96312.00;;;18.60
14851;BMP180;7517;48.400;11.770;2022-10-22T04:35:07;96311.00;;;18.70
14851;BMP180;7517;48.400;11.770;2022-10-22T04:37:34;96317.00;;;18.60
14851;BMP180;7517;48.400;11.770;2022-10-22T04:40:02;96312.00;;;18.60
14851;BMP180;7517;48.400;11.770;2022-10-22T04:42:30;96316.00;;;18.60
14851;BMP180;7517;48.400;11.770;2022-10-22T04:44:58;96318.00;;;18.60
14851;BMP180;7517;48.400;11.770;2022-10-22T04:47:25;96317.00;;;18.50
14851;BMP180;7517;48.400;11.770;2022-10-22T04:49:52;96321.00;;;18.50
14851;BMP180;7517;48.400;11.770;2022-10-22T04:52:19;96325.00;;;18.50
14851;BMP180;7517;48.400;11.770;2022-10-22T04:54:46;96319.00;;;18.50
14851;BMP180;7517;48.400;11.770;2022-10-22T04:57:14;96327.00;;;18.50
14851;BMP180;7517;48.400;11.770;2022-10-22T04:59:41;96324.00;;;18.40
14851;BMP180;7517;48.400;11.770;2022-10-22T05:02:09;96328.00;;;18.40
14851;BMP180;7517;48.400;11.770;2022-10-22T05:04:36;96332.00;;;18.40
14851;BMP180;7517;48.400;11.770;2022-10-22T05:07:03;96337.00;;;18.40
14851;BMP180;7517;48.400;11.770;2022-10-22T05:09:30;96346.00;;;18.40
14851;BMP180;7517;48.400;11.770;2022-10-22T05:11:57;96350.00;;;18.30
14851;BMP180;7517;48.400;11.770;2022-10-22T05:14:25;96350.00;;;18.30
14851;BMP180;7517;48.400;11.770;2022-10-22T05:16:52;96351.00;;;18.30
14851;BMP180;7517;48.400;11.770;2022-10-22T05:19:24;96345.00;;;18.20
14851;BMP180;7517;48.400;11.770;2022-10-22T05:21:53;96337.00;;;18.20
14851;BMP180;7517;48.400;11.770;2022-10-22T05:24:21;96339.00;;;18.20
14851;BMP180;7517;48.400;11.770;2022-10-22T05:26:48;96344.00;;;18.20
14851;BMP180;7517;48.400;11.770;2022-10-22T05:29:17;96349.00;;;18.20
14851;BMP180;7517;48.400;11.770;2022-10-22T05:31:44;96361.00;;;18.20
14851;BMP180;7517;48.400;11.770;2022-10-22T05:34:12;96353.00;;;18.20
14851;BMP180;7517;48.400;11.770;2022-10-22T05:36:41;96330.00;;;18.20
14851;BMP180;7517;48.400;11.770;2022-10-22T05:39:08;96328.00;;;18.20
14851;BMP180;7517;48.400;11.770;2022-10-22T05:41:36;96343.00;;;18.20
14851;BMP180;7517;48.400;11.770;2022-10-22T05:44:05;96354.00;;;18.20
14851;BMP180;7517;48.400;11.770;2022-10-22T05:46:37;96354.00;;;18.20
14851;BMP180;7517;48.400;11.770;2022-10-22T05:49:06;96355.00;;;18.20
14851;BMP180;7517;48.400;11.770;2022-10-22T05:51:36;96366.00;;;18.20
14851;BMP180;7517;48.400;11.770;2022-10-22T05:54:10;96375.00;;;18.30
14851;BMP180;7517;48.400;11.770;2022-10-22T05:56:39;96374.00;;;18.30
14851;BMP180;7517;48.400;11.770;2022-10-22T05:59:06;96371.00;;;18.30
14851;BMP180;7517;48.400;11.770;2022-10-22T06:01:34;96374.00;;;18.30
14851;BMP180;7517;48.400;11.770;2022-10-22T06:04:15;96373.00;;;18.30
14851;BMP180;7517;48.400;11.770;2022-10-22T06:06:55;96380.00;;;18.30
14851;BMP180;7517;48.400;11.770;2022-10-22T06:09:34;96385.00;;;18.30
14851;BMP180;7517;48.400;11.770;2022-10-22T06:12:07;96388.00;;;18.30
14851;BMP180;7517;48.400;11.770;2022-10-22T06:14:39;96382.00;;;18.30
14851;BMP180;7517;48.400;11.770;2022-10-22T06:17:10;96381.00;;;18.30
14851;BMP180;7517;48.400;11.770;2022-10-22T06:19:39;96383.00;;;18.30
14851;BMP180;7517;48.400;11.770;2022-10-22T06:22:13;96386.00;;;18.30
14851;BMP180;7517;48.400;11.770;2022-10-22T06:24:48;96374.00;;;18.30
14851;BMP180;7517;48.400;11.770;2022-10-22T06:27:15;96382.00;;;18.30
14851;BMP180;7517;48.400;11.770;2022-10-22T06:29:48;96376.00;;;18.20
14851;BMP180;7517;48.400;11.770;2022-10-22T06:32:15;96375.00;;;18.20
14851;BMP180;7517;48.400;11.770;2022-10-22T06:34:46;96383.00;;;18.20
14851;BMP180;7517;48.400;11.770;2022-10-22T06:37:21;96394.00;;;18.20
14851;BMP180;7517;48.400;11.770;2022-10-22T06:39:55;96396.00;;;18.20
14851;BMP180;7517;48.400;11.770;2022-10-22T06:42:26;96398.00;;;18.20
14851;BMP180;7517;48.400;11.770;2022-10-22T06:44:58;96399.00;;;18.20
14851;BMP180;7517;48.400;11.770;2022-10-22T06:47:27;96395.00;;;18.20
14851;BMP180;7517;48.400;11.770;2022-10-22T06:49:59;96397.00;;;18.20
14851;BMP180;7517;48.400;11.770;2022-10-22T06:52:28;96420.00;;;18.20
14851;BMP180;7517;48.400;11.770;2022-10-22T06:54:56;96428.00;;;18.20
14851;BMP180;7517;48.400;11.770;2022-10-22T06:57:26;96443.00;;;18.20
14851;BMP180;7517;48.400;11.770;2022-10-22T06:59:55;96444.00;;;18.20
14851;BMP180;7517;48.400;11.770;2022-10-22T07:02:23;96451.00;;;18.20
14851;BMP180;7517;48.400;11.770;2022-10-22T07:04:51;96453.00;;;18.20
14851;BMP180;7517;48.400;11.770;2022-10-22T07:07:18;96460.00;;;18.30
14851;BMP180;7517;48.400;11.770;2022-10-22T07:09:45;96477.00;;;18.30
14851;BMP180;7517;48.400;11.770;2022-10-22T07:12:17;96480.00;;;18.30
14851;BMP180;7517;48.400;11.770;2022-10-22T07:14:47;96499.00;;;18.30
14851;BMP180;7517;48.400;11.770;2022-10-22T07:17:17;96506.00;;;18.30
14851;BMP180;7517;48.400;11.770;2022-10-22T07:19:47;96505.00;;;18.30
14851;BMP180;7517;48.400;11.770;2022-10-22T07:22:24;96499.00;;;18.30
14851;BMP180;7517;48.400;11.770;2022-10-22T07:24:58;96494.00;;;18.30
14851;BMP180;7517;48.400;11.770;2022-10-22T07:27:26;96498.00;;;18.40
14851;BMP180;7517;48.400;11.770;2022-10-22T07:29:57;96500.00;;;18.40
14851;BMP180;7517;48.400;11.770;2022-10-22T07:32:27;96519.00;;;18.40
14851;BMP180;7517;48.400;11.770;2022-10-22T07:34:55;96512.00;;;18.40
14851;BMP180;7517;48.400;11.770;2022-10-22T07:37:25;96518.00;;;18.40
14851;BMP180;7517;48.400;11.770;2022-10-22T07:39:52;96530.00;;;18.40
14851;BMP180;7517;48.400;11.770;2022-10-22T07:42:26;96531.00;;;18.40
14851;BMP180;7517;48.400;11.770;2022-10-22T07:44:53;96536.00;;;18.40
14851;BMP180;7517;48.400;11.770;2022-10-22T07:47:27;96533.00;;;18.40
14851;BMP180;7517;48.400;11.770;2022-10-22T07:49:54;96532.00;;;18.40
14851;BMP180;7517;48.400;11.770;2022-10-22T07:52:24;96541.00;;;18.50
14851;BMP180;7517;48.400;11.770;2022-10-22T07:54:51;96540.00;;;18.50
14851;BMP180;7517;48.400;11.770;2022-10-22T07:57:21;96537.00;;;18.50
14851;BMP180;7517;48.400;11.770;2022-10-22T07:59:58;96540.00;;;18.50
14851;BMP180;7517;48.400;11.770;2022-10-22T08:02:49;96539.00;;;18.50
14851;BMP180;7517;48.400;11.770;2022-10-22T08:05:31;96546.00;;;18.60
14851;BMP180;7517;48.400;11.770;2022-10-22T08:08:02;96557.00;;;18.60
14851;BMP180;7517;48.400;11.770;2022-10-22T08:10:29;96555.00;;;18.60
14851;BMP180;7517;48.400;11.770;2022-10-22T08:12:58;96554.00;;;18.70
14851;BMP180;7517;48.400;11.770;2022-10-22T08:15:28;96557.00;;;18.70
14851;BMP180;7517;48.400;11.770;2022-10-22T08:17:58;96549.00;;;18.70
14851;BMP180;7517;48.400;11.770;2022-10-22T08:20:26;96541.00;;;18.80
14851;BMP180;7517;48.400;11.770;2022-10-22T08:22:55;96547.00;;;18.80
14851;BMP180;7517;48.400;11.770;2022-10-22T08:25:23;96549.00;;;18.80
14851;BMP180;7517;48.400;11.770;2022-10-22T08:27:51;96561.00;;;18.80
14851;BMP180;7517;48.400;11.770;2022-10-22T08:30:18;96563.00;;;18.80
14851;BMP180;7517;48.400;11.770;2022-10-22T08:32:50;96569.00;;;18.80
14851;BMP180;7517;48.400;11.770;2022-10-22T08:35:24;96562.00;;;18.90
14851;BMP180;7517;48.400;11.770;2022-10-22T08:37:53;96565.00;;;18.90
14851;BMP180;7517;48.400;11.770;2022-10-22T08:40:28;96571.00;;;18.90
14851;BMP180;7517;48.400;11.770;2022-10-22T08:43:16;96574.00;;;19.00
14851;BMP180;7517;48.400;11.770;2022-10-22T08:46:09;96574.00;;;19.00
14851;BMP180;7517;48.400;11.770;2022-10-22T08:48:45;96576.00;;;19.00
14851;BMP180;7517;48.400;11.770;2022-10-22T08:51:17;96590.00;;;19.10
14851;BMP180;7517;48.400;11.770;2022-10-22T08:54:07;96595.00;;;19.10
14851;BMP180;7517;48.400;11.770;2022-10-22T08:56:41;96593.00;;;19.10
14851;BMP180;7517;48.400;11.770;2022-10-22T08:59:22;96589.00;;;19.10
14851;BMP180;7517;48.400;11.770;2022-10-22T09:01:53;96584.00;;;19.10
14851;BMP180;7517;48.400;11.770;2022-10-22T09:04:29;96595.00;;;19.10
14851;BMP180;7517;48.400;11.770;2022-10-22T09:06:59;96605.00;;;19.10
14851;BMP180;7517;48.400;11.770;2022-10-22T09:09:32;96603.00;;;19.20
14851;BMP180;7517;48.400;11.770;2022-10-22T09:12:02;96610.00;;;19.20
14851;BMP180;7517;48.400;11.770;2022-10-22T09:14:29;96605.00;;;19.20
14851;BMP180;7517;48.400;11.770;2022-10-22T09:17:24;96614.00;;;19.20
14851;BMP180;7517;48.400;11.770;2022-10-22T09:20:16;96605.00;;;19.30
14851;BMP180;7517;48.400;11.770;2022-10-22T09:23:09;96615.00;;;19.30
14851;BMP180;7517;48.400;11.770;2022-10-22T09:25:43;96626.00;;;19.40
14851;BMP180;7517;48.400;11.770;2022-10-22T09:28:12;96635.00;;;19.40
14851;BMP180;7517;48.400;11.770;2022-10-22T09:30:39;96631.00;;;19.40
14851;BMP180;7517;48.400;11.770;2022-10-22T09:33:17;96631.00;;;19.40
14851;BMP180;7517;48.400;11.770;2022-10-22T09:35:54;96635.00;;;19.40
14851;BMP180;7517;48.400;11.770;2022-10-22T09:38:29;96634.00;;;19.40
14851;BMP180;7517;48.400;11.770;2022-10-22T09:40:59;96632.00;;;19.40
14851;BMP180;7517;48.400;11.770;2022-10-22T09:43:31;96635.00;;;19.50
14851;BMP180;7517;48.400;11.770;2022-10-22T09:46:04;96634.00;;;19.50
14851;BMP180;7517;48.400;11.770;2022-10-22T09:48:34;96629.00;;;19.50
14851;BMP180;7517;48.400;11.770;2022-10-22T09:51:14;96631.00;;;19.60
14851;BMP180;7517;48.400;11.770;2022-10-22T09:53:55;96632.00;;;19.60
14851;BMP180;7517;48.400;11.770;2022-10-22T09:56:33;96637.00;;;19.70
14851;BMP180;7517;48.400;11.770;2022-10-22T09:59:05;96643.00;;;19.70
14851;BMP180;7517;48.400;11.770;2022-10-22T10:01:36;96644.00;;;19.80
14851;BMP180;7517;48.400;11.770;2022-10-22T10:04:09;96644.00;;;19.80
14851;BMP180;7517;48.400;11.770;2022-10-22T10:06:43;96644.00;;;19.90
14851;BMP180;7517;48.400;11.770;2022-10-22T10:09:16;96646.00;;;19.90
14851;BMP180;7517;48.400;11.770;2022-10-22T10:11:49;96648.00;;;20.00
14851;BMP180;7517;48.400;11.770;2022-10-22T10:14:27;96643.00;;;20.00
14851;BMP180;7517;48.400;11.770;2022-10-22T10:17:03;96648.00;;;20.10
14851;BMP180;7517;48.400;11.770;2022-10-22T10:19:55;96648.00;;;20.10
14851;BMP180;7517;48.400;11.770;2022-10-22T10:22:53;96648.00;;;20.10
14851;BMP180;7517;48.400;11.770;2022-10-22T10:25:45;96649.00;;;20.10
14851;BMP180;7517;48.400;11.770;2022-10-22T10:28:30;96650.00;;;20.10
14851;BMP180;7517;48.400;11.770;2022-10-22T10:31:11;96641.00;;;20.10
14851;BMP180;7517;48.400;11.770;2022-10-22T10:33:50;96643.00;;;20.10
14851;BMP180;7517;48.400;11.770;2022-10-22T10:36:30;96643.00;;;20.10
14851;BMP180;7517;48.400;11.770;2022-10-22T10:39:05;96638.00;;;20.10
14851;BMP180;7517;48.400;11.770;2022-10-22T10:41:50;96636.00;;;20.00
14851;BMP180;7517;48.400;11.770;2022-10-22T10:44:41;96631.00;;;20.00
14851;BMP180;7517;48.400;11.770;2022-10-22T10:47:26;96628.00;;;20.00
14851;BMP180;7517;48.400;11.770;2022-10-22T10:50:16;96631.00;;;19.90
14851;BMP180;7517;48.400;11.770;2022-10-22T10:52:54;96626.00;;;19.90
14851;BMP180;7517;48.400;11.770;2022-10-22T10:55:32;96632.00;;;19.90
14851;BMP180;7517;48.400;11.770;2022-10-22T10:58:13;96634.00;;;19.90
14851;BMP180;7517;48.400;11.770;2022-10-22T11:00:51;96638.00;;;19.80
14851;BMP180;7517;48.400;11.770;2022-10-22T11:06:44;96636.00;;;19.90
14851;BMP180;7517;48.400;11.770;2022-10-22T11:09:23;96641.00;;;19.90
14851;BMP180;7517;48.400;11.770;2022-10-22T11:11:59;96641.00;;;19.90
14851;BMP180;7517;48.400;11.770;2022-10-22T11:14:34;96641.00;;;19.90
14851;BMP180;7517;48.400;11.770;2022-10-22T11:17:13;96636.00;;;19.90
14851;BMP180;7517;48.400;11.770;2022-10-22T11:19:46;96638.00;;;20.00
14851;BMP180;7517;48.400;11.770;2022-10-22T11:22:18;96640.00;;;20.00
14851;BMP180;7517;48.400;11.770;2022-10-22T11:24:55;96636.00;;;20.00
14851;BMP180;7517;48.400;11.770;2022-10-22T11:27:34;96641.00;;;20.10
14851;BMP180;7517;48.400;11.770;2022-10-22T11:30:10;96638.00;;;20.20
14851;BMP180;7517;48.400;11.770;2022-10-22T11:32:40;96643.00;;;20.20
14851;BMP180;7517;48.400;11.770;2022-10-22T11:35:14;96638.00;;;20.30
14851;BMP180;7517;48.400;11.770;2022-10-22T11:37:44;96630.00;;;20.40
14851;BMP180;7517;48.400;11.770;2022-10-22T11:40:18;96630.00;;;20.50
14851;BMP180;7517;48.400;11.770;2022-10-22T11:42:53;96635.00;;;20.60
14851;BMP180;7517;48.400;11.770;2022-10-22T11:45:30;96630.00;;;20.60
14851;BMP180;7517;48.400;11.770;2022-10-22T11:48:15;96626.00;;;20.60
14851;BMP180;7517;48.400;11.770;2022-10-22T11:50:49;96627.00;;;20.70
14851;BMP180;7517;48.400;11.770;2022-10-22T11:53:27;96626.00;;;20.70
14851;BMP180;7517;48.400;11.770;2022-10-22T11:55:57;96628.00;;;20.70
14851;BMP180;7517;48.400;11.770;2022-10-22T11:58:39;96627.00;;;20.70
14851;BMP180;7517;48.400;11.770;2022-10-22T12:01:26;96624.00;;;20.70
14851;BMP180;7517;48.400;11.770;2022-10-22T12:04:20;96626.00;;;20.70
14851;BMP180;7517;48.400;11.770;2022-10-22T12:06:59;96629.00;;;20.70
14851;BMP180;7517;48.400;11.770;2022-10-22T12:09:29;96629.00;;;20.70
14851;BMP180;7517;48.400;11.770;2022-10-22T12:12:11;96625.00;;;20.80
14851;BMP180;7517;48.400;11.770;2022-10-22T12:14:53;96627.00;;;20.80
14851;BMP180;7517;48.400;11.770;2022-10-22T12:17:22;96628.00;;;20.80
14851;BMP180;7517;48.400;11.770;2022-10-22T12:19:56;96624.00;;;20.80
14851;BMP180;7517;48.400;11.770;2022-10-22T12:22:28;96619.00;;;20.80
14851;BMP180;7517;48.400;11.770;2022-10-22T12:25:00;96619.00;;;20.80
14851;BMP180;7517;48.400;11.770;2022-10-22T12:27:35;96615.00;;;20.90
14851;BMP180;7517;48.400;11.770;2022-10-22T12:30:17;96610.00;;;20.90
14851;BMP180;7517;48.400;11.770;2022-10-22T12:32:46;96609.00;;;20.90
14851;BMP180;7517;48.400;11.770;2022-10-22T12:35:17;96604.00;;;20.90
14851;BMP180;7517;48.400;11.770;2022-10-22T12:37:49;96602.00;;;20.90
14851;BMP180;7517;48.400;11.770;2022-10-22T12:40:20;96599.00;;;20.90
14851;BMP180;7517;48.400;11.770;2022-10-22T12:42:51;96597.00;;;20.90
14851;BMP180;7517;48.400;11.770;2022-10-22T12:45:32;96592.00;;;20.90
14851;BMP180;7517;48.400;11.770;2022-10-22T12:48:16;96593.00;;;20.90
14851;BMP180;7517;48.400;11.770;2022-10-22T12:50:53;96593.00;;;20.90
14851;BMP180;7517;48.400;11.770;2022-10-22T12:53:37;96592.00;;;21.00
14851;BMP180;7517;48.400;11.770;2022-10-22T12:56:17;96588.00;;;21.00
14851;BMP180;7517;48.400;11.770;2022-10-22T12:58:52;96595.00;;;21.00
14851;BMP180;7517;48.400;11.770;2022-10-22T13:01:32;96595.00;;;21.10
14851;BMP180;7517;48.400;11.770;2022-10-22T13:04:19;96600.00;;;21.10
14851;BMP180;7517;48.400;11.770;2022-10-22T13:07:02;96596.00;;;21.10
14851;BMP180;7517;48.400;11.770;2022-10-22T13:09:39;96599.00;;;21.00
14851;BMP180;7517;48.400;11.770;2022-10-22T13:12:24;96597.00;;;21.00
14851;BMP180;7517;48.400;11.770;2022-10-22T13:14:55;96589.00;;;21.00
14851;BMP180;7517;48.400;11.770;2022-10-22T13:17:40;96589.00;;;21.00
14851;BMP180;7517;48.400;11.770;2022-10-22T13:20:22;96578.00;;;21.00
14851;BMP180;7517;48.400;11.770;2022-10-22T13:22:58;96578.00;;;21.00
14851;BMP180;7517;48.400;11.770;2022-10-22T13:25:33;96580.00;;;21.00
14851;BMP180;7517;48.400;11.770;2022-10-22T13:28:18;96578.00;;;21.00
14851;BMP180;7517;48.400;11.770;2022-10-22T13:31:09;96578.00;;;21.00
14851;BMP180;7517;48.400;11.770;2022-10-22T13:33:52;96588.00;;;21.00
14851;BMP180;7517;48.400;11.770;2022-10-22T13:36:40;96581.00;;;21.00
14851;BMP180;7517;48.400;11.770;2022-10-22T13:39:17;96581.00;;;21.00
14851;BMP180;7517;48.400;11.770;2022-10-22T13:41:48;96587.00;;;21.00
14851;BMP180;7517;48.400;11.770;2022-10-22T13:44:19;96582.00;;;21.00
14851;BMP180;7517;48.400;11.770;2022-10-22T13:46:48;96582.00;;;21.00
14851;BMP180;7517;48.400;11.770;2022-10-22T13:49:22;96586.00;;;21.00
14851;BMP180;7517;48.400;11.770;2022-10-22T13:52:07;96583.00;;;21.00
14851;BMP180;7517;48.400;11.770;2022-10-22T13:54:47;96584.00;;;21.00
14851;BMP180;7517;48.400;11.770;2022-10-22T13:57:15;96588.00;;;21.00
14851;BMP180;7517;48.400;11.770;2022-10-22T13:59:58;96588.00;;;21.00
14851;BMP180;7517;48.400;11.770;2022-10-22T14:02:26;96582.00;;;21.10
14851;BMP180;7517;48.400;11.770;2022-10-22T14:05:02;96590.00;;;21.10
14851;BMP180;7517;48.400;11.770;2022-10-22T14:07:34;96594.00;;;21.00
14851;BMP180;7517;48.400;11.770;2022-10-22T14:10:16;96596.00;;;21.00
14851;BMP180;7517;48.400;11.770;2022-10-22T14:12:53;96595.00;;;21.00
14851;BMP180;7517;48.400;11.770;2022-10-22T14:15:25;96590.00;;;21.00
14851;BMP180;7517;48.400;11.770;2022-10-22T14:18:03;96590.00;;;21.00
14851;BMP180;7517;48.400;11.770;2022-10-22T14:20:36;96597.00;;;21.00
14851;BMP180;7517;48.400;11.770;2022-10-22T14:23:17;96596.00;;;20.90
14851;BMP180;7517;48.400;11.770;2022-10-22T14:25:46;96599.00;;;20.90
14851;BMP180;7517;48.400;11.770;2022-10-22T14:28:18;96594.00;;;20.90
14851;BMP180;7517;48.400;11.770;2022-10-22T14:30:52;96591.00;;;20.90
14851;BMP180;7517;48.400;11.770;2022-10-22T14:33:26;96598.00;;;20.90
14851;BMP180;7517;48.400;11.770;2022-10-22T14:36:00;96591.00;;;20.90
14851;BMP180;7517;48.400;11.770;2022-10-22T14:38:29;96600.00;;;20.90
14851;BMP180;7517;48.400;11.770;2022-10-22T14:41:00;96613.00;;;20.90
14851;BMP180;7517;48.400;11.770;2022-10-22T14:43:30;96601.00;;;20.90
14851;BMP180;7517;48.400;11.770;2022-10-22T14:46:07;96610.00;;;20.90
14851;BMP180;7517;48.400;11.770;2022-10-22T14:48:39;96613.00;;;20.90